Time;durP1;ratioP1;P1;durP2;ratioP2;P2;SDS_P1;SDS_P2;PMS_P1;PMS_P2;Temp;Humidity;BMP_temperature;BMP_pressure;BME280_temperature;BME280_humidity;BME280_pressure;Samples;Min_cycle;Max_cycle;Signal;HPM_P1;HPM_P2
2023/03/04 00:00:42;;;;;;;31.30;15.17;;;2.70;99.90;;;;;;4904985;29;20781;-69
2023/03/04 00:03:09;;;;;;;31.33;14.07;;;2.80;99.90;;;;;;4906719;29;20227;-68
2023/03/04 00:05:36;;;;;;;33.13;14.90;;;2.80;99.90;;;;;;4902373;29;20506;-68
2023/03/04 00:08:02;;;;;;;35.60;13.50;;;2.90;99.90;;;;;;4927645;29;20467;-69
2023/03/04 00:10:28;;;;;;;35.77;14.47;;;2.90;99.90;;;;;;4952454;28;20549;-69
2023/03/04 00:12:54;;;;;;;33.43;12.47;;;3.00;99.90;;;;;;4944587;28;20506;-69
2023/03/04 00:15:20;;;;;;;29.13;13.57;;;2.90;99.90;;;;;;4915239;29;20222;-68
2023/03/04 00:17:45;;;;;;;31.23;13.47;;;3.00;99.90;;;;;;4913092;29;20250;-69
2023/03/04 00:20:12;;;;;;;39.27;14.57;;;3.00;99.90;;;;;;4927186;28;20249;-69
2023/03/04 00:22:37;;;;;;;44.03;15.63;;;3.00;99.90;;;;;;4907946;29;20282;-68
2023/03/04 00:25:03;;;;;;;29.73;14.43;;;3.00;99.90;;;;;;4944119;28;20462;-69
2023/03/04 00:27:29;;;;;;;33.73;15.33;;;3.10;99.90;;;;;;4922419;29;20230;-68
2023/03/04 00:29:55;;;;;;;35.90;16.40;;;3.10;99.90;;;;;;4925197;29;20457;-68
2023/03/04 00:32:21;;;;;;;27.67;12.53;;;3.10;99.90;;;;;;4927139;28;20293;-69
2023/03/04 00:34:47;;;;;;;30.87;13.87;;;3.00;99.90;;;;;;4929382;29;20525;-69
2023/03/04 00:37:13;;;;;;;33.30;13.57;;;3.00;99.90;;;;;;4906991;29;20518;-68
2023/03/04 00:39:39;;;;;;;30.67;14.53;;;3.00;99.90;;;;;;4914871;29;20545;-69
2023/03/04 00:42:04;;;;;;;39.23;17.03;;;3.00;99.90;;;;;;4923147;29;20298;-69
2023/03/04 00:44:30;;;;;;;35.43;15.63;;;2.90;99.90;;;;;;4920351;28;20239;-69
2023/03/04 00:46:56;;;;;;;36.00;15.27;;;2.90;99.90;;;;;;4947504;28;20226;-69
2023/03/04 00:49:22;;;;;;;35.77;14.30;;;2.80;99.90;;;;;;4930573;28;20522;-69
2023/03/04 00:51:48;;;;;;;30.87;12.57;;;2.80;99.90;;;;;;4907091;29;20227;-69
2023/03/04 00:54:13;;;;;;;38.10;13.60;;;2.90;99.90;;;;;;4924900;29;20458;-69
2023/03/04 00:56:39;;;;;;;36.30;12.73;;;2.90;99.90;;;;;;4914815;29;20309;-68
2023/03/04 00:59:05;;;;;;;32.07;11.70;;;2.90;99.90;;;;;;4921116;29;20300;-69
2023/03/04 01:01:31;;;;;;;32.40;12.47;;;2.90;99.90;;;;;;4914906;29;20223;-69
2023/03/04 01:03:56;;;;;;;31.80;13.00;;;2.90;99.90;;;;;;4928089;29;20466;-68
2023/03/04 01:06:22;;;;;;;28.97;13.17;;;2.90;99.90;;;;;;4930931;28;20236;-69
2023/03/04 01:08:48;;;;;;;30.47;13.20;;;2.90;99.90;;;;;;4927957;29;20272;-69
2023/03/04 01:11:13;;;;;;;38.37;12.97;;;2.80;99.90;;;;;;4917825;29;20235;-70
2023/03/04 01:13:39;;;;;;;35.67;12.37;;;2.80;99.90;;;;;;4923801;28;20265;-68
2023/03/04 01:16:06;;;;;;;40.00;14.07;;;2.80;99.90;;;;;;4921400;29;20222;-69
2023/03/04 01:18:32;;;;;;;29.70;12.83;;;2.80;99.90;;;;;;4928360;29;20231;-69
2023/03/04 01:20:58;;;;;;;31.10;12.63;;;2.70;99.90;;;;;;4916918;29;20466;-69
2023/03/04 01:23:23;;;;;;;29.83;11.53;;;2.70;99.90;;;;;;4898084;29;20484;-68
2023/03/04 01:25:49;;;;;;;31.10;12.40;;;2.80;99.90;;;;;;4919627;29;20230;-69
2023/03/04 01:28:14;;;;;;;29.67;12.73;;;2.80;99.90;;;;;;4903993;29;20233;-70
2023/03/04 01:30:40;;;;;;;31.67;12.77;;;2.90;99.90;;;;;;4924481;29;20292;-68
2023/03/04 01:33:06;;;;;;;28.43;11.90;;;2.80;99.90;;;;;;4945630;28;20297;-69
2023/03/04 01:35:32;;;;;;;28.47;11.07;;;2.90;99.90;;;;;;4912021;29;20222;-69
2023/03/04 01:37:58;;;;;;;34.20;13.50;;;2.90;99.90;;;;;;4928614;29;20246;-68
2023/03/04 01:40:23;;;;;;;39.00;14.23;;;2.80;99.90;;;;;;4922828;29;20483;-69
2023/03/04 01:42:49;;;;;;;29.03;12.17;;;2.90;99.90;;;;;;4904254;29;20234;-69
2023/03/04 01:45:18;;;;;;;38.77;13.67;;;2.80;99.90;;;;;;4912594;29;20631;-69
2023/03/04 01:47:47;;;;;;;35.97;12.80;;;2.70;99.90;;;;;;4935545;28;20864;-69
2023/03/04 01:50:34;;;;;;;27.87;12.53;;;2.80;99.90;;;;;;4911240;29;20554;-70
2023/03/04 01:53:00;;;;;;;30.67;11.53;;;2.80;99.90;;;;;;4931396;28;20562;-69
2023/03/04 01:55:28;;;;;;;28.13;11.73;;;2.80;99.90;;;;;;4938936;28;20977;-69
2023/03/04 01:57:56;;;;;;;35.00;13.57;;;2.80;99.90;;;;;;4934191;28;20510;-69
2023/03/04 02:00:22;;;;;;;34.57;10.87;;;2.70;99.90;;;;;;4920279;29;20479;-69
2023/03/04 02:02:51;;;;;;;30.40;12.57;;;2.80;99.90;;;;;;4926926;29;20461;-69
2023/03/04 02:05:17;;;;;;;30.63;12.43;;;2.80;99.90;;;;;;4907796;29;20275;-69
2023/03/04 02:07:43;;;;;;;38.50;15.97;;;2.80;99.90;;;;;;4900355;29;20462;-70
2023/03/04 02:10:10;;;;;;;43.60;15.87;;;2.80;99.90;;;;;;4925824;28;20230;-69
2023/03/04 02:12:36;;;;;;;26.43;11.60;;;2.80;99.90;;;;;;4916937;29;20213;-69
2023/03/04 02:15:02;;;;;;;33.57;15.17;;;2.80;99.90;;;;;;4918198;29;20469;-69
2023/03/04 02:17:28;;;;;;;48.37;12.80;;;2.70;99.90;;;;;;4923534;29;20446;-69
2023/03/04 02:19:58;;;;;;;26.40;11.37;;;2.70;99.90;;;;;;4926563;29;20469;-69
2023/03/04 02:22:23;;;;;;;29.53;12.40;;;2.70;99.90;;;;;;4923067;28;20223;-69
2023/03/04 02:24:53;;;;;;;26.77;12.10;;;2.70;99.90;;;;;;4905022;29;20472;-69
2023/03/04 02:27:20;;;;;;;31.37;12.27;;;2.70;99.90;;;;;;4948355;28;20310;-69
2023/03/04 02:29:45;;;;;;;32.23;13.27;;;2.70;99.90;;;;;;4924166;29;20548;-69
2023/03/04 02:32:12;;;;;;;25.37;11.50;;;2.70;99.90;;;;;;4920749;29;20708;-69
2023/03/04 02:34:45;;;;;;;25.67;11.87;;;2.70;99.90;;;;;;4916834;29;20223;-69
2023/03/04 02:37:12;;;;;;;21.43;11.40;;;2.70;99.90;;;;;;4929537;29;20542;-68
2023/03/04 02:39:43;;;;;;;22.30;11.60;;;2.70;99.90;;;;;;4909951;29;20459;-69
2023/03/04 02:42:11;;;;;;;30.50;11.80;;;2.60;99.90;;;;;;4937831;28;20467;-69
2023/03/04 02:44:40;;;;;;;31.10;12.77;;;2.60;99.90;;;;;;4926988;29;20532;-68
2023/03/04 02:47:08;;;;;;;27.03;12.40;;;2.60;99.90;;;;;;4922047;29;20477;-69
2023/03/04 02:49:37;;;;;;;35.07;13.57;;;2.60;99.90;;;;;;4923721;29;20822;-69
2023/03/04 02:52:09;;;;;;;32.37;12.80;;;2.70;99.90;;;;;;4918793;29;20512;-67
2023/03/04 02:54:36;;;;;;;32.97;14.70;;;2.70;99.90;;;;;;4903433;29;20447;-69
2023/03/04 02:57:05;;;;;;;24.87;10.47;;;2.70;99.90;;;;;;4947844;28;20558;-68
2023/03/04 02:59:34;;;;;;;25.90;10.60;;;2.60;99.90;;;;;;4922510;29;20459;-69
2023/03/04 03:02:00;;;;;;;33.47;12.53;;;2.60;99.90;;;;;;4917511;29;20478;-69
2023/03/04 03:04:27;;;;;;;30.60;12.00;;;2.60;99.90;;;;;;4910871;29;20553;-69
2023/03/04 03:06:54;;;;;;;32.60;10.70;;;2.50;99.90;;;;;;4925189;29;20469;-69
2023/03/04 03:09:20;;;;;;;28.23;12.63;;;2.50;99.90;;;;;;4915552;29;20501;-69
2023/03/04 03:11:46;;;;;;;30.00;12.60;;;2.50;99.90;;;;;;4909341;29;20457;-69
2023/03/04 03:14:13;;;;;;;33.97;13.60;;;2.60;99.90;;;;;;4932743;28;20458;-69
2023/03/04 03:16:39;;;;;;;35.10;13.10;;;2.60;99.90;;;;;;4923242;29;20462;-69
2023/03/04 03:19:04;;;;;;;30.13;10.83;;;2.70;99.90;;;;;;4935436;28;21011;-69
2023/03/04 03:21:30;;;;;;;25.23;11.80;;;2.80;99.90;;;;;;4910235;29;20606;-69
2023/03/04 03:23:56;;;;;;;30.07;12.73;;;2.80;99.90;;;;;;4942574;28;20232;-68
2023/03/04 03:26:22;;;;;;;32.30;12.73;;;2.60;99.90;;;;;;4921519;29;20283;-69
2023/03/04 03:28:47;;;;;;;27.93;12.77;;;2.70;99.90;;;;;;4911116;29;20219;-70
2023/03/04 03:31:13;;;;;;;27.83;13.13;;;2.70;99.90;;;;;;4945660;28;20227;-69
2023/03/04 03:33:39;;;;;;;30.87;13.67;;;2.70;99.90;;;;;;4918032;29;20220;-68
2023/03/04 03:36:06;;;;;;;33.20;14.43;;;2.70;99.90;;;;;;4919805;29;20474;-69
2023/03/04 03:38:32;;;;;;;33.53;13.00;;;2.60;99.90;;;;;;4906200;29;20223;-69
2023/03/04 03:40:57;;;;;;;37.97;13.70;;;2.60;99.90;;;;;;4900665;29;20468;-69
2023/03/04 03:43:23;;;;;;;39.03;14.20;;;2.60;99.90;;;;;;4945403;28;20231;-69
2023/03/04 03:45:50;;;;;;;40.67;15.30;;;2.60;99.90;;;;;;4935417;28;20226;-69
2023/03/04 03:48:16;;;;;;;36.13;15.77;;;2.60;99.90;;;;;;4923549;29;20237;-69
2023/03/04 03:50:42;;;;;;;30.77;14.20;;;2.60;99.90;;;;;;4930149;29;20456;-69
2023/03/04 03:53:07;;;;;;;34.43;14.13;;;2.50;99.90;;;;;;4924800;28;20529;-70
2023/03/04 03:55:33;;;;;;;34.40;13.80;;;2.50;99.90;;;;;;4926086;29;20223;-69
2023/03/04 03:57:59;;;;;;;29.93;14.10;;;2.50;99.90;;;;;;4917103;29;20281;-69
2023/03/04 04:00:24;;;;;;;32.33;13.20;;;2.60;99.90;;;;;;4919782;29;20219;-69
2023/03/04 04:02:53;;;;;;;32.73;12.30;;;2.70;99.90;;;;;;4925390;29;20214;-69
2023/03/04 04:05:18;;;;;;;27.93;13.20;;;2.60;99.90;;;;;;4915774;29;20221;-69
2023/03/04 04:07:44;;;;;;;33.33;14.40;;;2.60;99.90;;;;;;4918886;29;20451;-70
2023/03/04 04:10:10;;;;;;;36.83;12.63;;;2.50;99.90;;;;;;4918600;29;20233;-69
2023/03/04 04:12:36;;;;;;;30.93;13.37;;;2.60;99.90;;;;;;4917211;29;20609;-69
2023/03/04 04:15:02;;;;;;;31.33;13.57;;;2.50;99.90;;;;;;4927319;29;20463;-69
2023/03/04 04:17:28;;;;;;;29.80;12.67;;;2.50;99.90;;;;;;4915907;29;20226;-69
2023/03/04 04:19:53;;;;;;;39.30;14.60;;;2.60;99.90;;;;;;4919832;29;20222;-69
2023/03/04 04:22:20;;;;;;;34.93;14.30;;;2.60;99.90;;;;;;4919391;29;20241;-70
2023/03/04 04:24:46;;;;;;;29.07;13.70;;;2.70;99.90;;;;;;4909551;29;20237;-70
2023/03/04 04:27:12;;;;;;;30.73;12.80;;;2.70;99.90;;;;;;4922022;29;20471;-68
2023/03/04 04:29:38;;;;;;;25.17;13.57;;;2.70;99.90;;;;;;4919439;29;20451;-69
2023/03/04 04:32:04;;;;;;;36.40;16.10;;;2.70;99.90;;;;;;4927382;29;20244;-68
2023/03/04 04:34:30;;;;;;;28.03;13.07;;;2.80;99.90;;;;;;4924271;29;20443;-70
2023/03/04 04:36:55;;;;;;;34.23;15.07;;;2.70;99.90;;;;;;4920247;29;20466;-69
2023/03/04 04:39:21;;;;;;;32.47;14.37;;;2.80;99.90;;;;;;4919179;29;20666;-69
2023/03/04 04:41:47;;;;;;;33.73;14.87;;;2.80;99.90;;;;;;4922182;29;20258;-69
2023/03/04 04:44:14;;;;;;;38.43;15.37;;;2.80;99.90;;;;;;4907979;29;20242;-69
2023/03/04 04:46:40;;;;;;;33.80;14.03;;;2.90;99.90;;;;;;4909916;29;20227;-69
2023/03/04 04:49:06;;;;;;;27.73;13.77;;;2.80;99.90;;;;;;4923348;29;20478;-69
2023/03/04 04:51:33;;;;;;;29.13;13.10;;;2.80;99.90;;;;;;4931139;28;20456;-69
2023/03/04 04:54:00;;;;;;;33.90;13.70;;;2.80;99.90;;;;;;4901969;29;20483;-70
2023/03/04 04:56:27;;;;;;;28.80;13.87;;;2.80;99.90;;;;;;4911853;29;20464;-69
2023/03/04 04:58:59;;;;;;;32.03;14.50;;;2.80;99.90;;;;;;4927815;29;20999;-69
2023/03/04 05:01:25;;;;;;;32.97;14.10;;;2.80;99.90;;;;;;4913697;29;20501;-71
2023/03/04 05:03:54;;;;;;;27.50;12.47;;;2.90;99.90;;;;;;4911549;29;20471;-70
2023/03/04 05:06:22;;;;;;;30.30;12.73;;;2.90;99.90;;;;;;4926235;29;21076;-70
2023/03/04 05:08:48;;;;;;;30.50;13.17;;;2.90;99.90;;;;;;4923105;28;20451;-70
2023/03/04 05:11:14;;;;;;;28.67;13.70;;;2.90;99.90;;;;;;4928573;28;20487;-70
2023/03/04 05:13:40;;;;;;;30.03;14.40;;;3.00;99.90;;;;;;4929203;28;20538;-69
2023/03/04 05:16:06;;;;;;;28.27;12.90;;;3.00;99.90;;;;;;4925475;29;20245;-70
2023/03/04 05:18:32;;;;;;;27.13;13.03;;;3.00;99.90;;;;;;4923068;28;20443;-70
2023/03/04 05:21:00;;;;;;;21.77;12.03;;;3.00;99.90;;;;;;4926526;29;20462;-69
2023/03/04 05:23:29;;;;;;;27.87;12.90;;;3.00;99.90;;;;;;4920410;29;20222;-70
2023/03/04 05:25:55;;;;;;;25.73;12.30;;;3.10;99.90;;;;;;4929480;29;20466;-70
2023/03/04 05:28:20;;;;;;;34.30;15.17;;;3.10;99.90;;;;;;4929765;28;20491;-69
2023/03/04 05:30:46;;;;;;;28.00;13.47;;;3.00;99.90;;;;;;4917550;29;20231;-69
2023/03/04 05:33:14;;;;;;;34.87;15.07;;;2.90;99.90;;;;;;4923511;28;20226;-70
2023/03/04 05:35:41;;;;;;;25.47;12.37;;;3.00;99.90;;;;;;4947304;28;20231;-68
2023/03/04 05:38:09;;;;;;;26.70;13.93;;;3.00;99.90;;;;;;4915444;29;20490;-70
2023/03/04 05:40:34;;;;;;;27.70;14.20;;;3.10;99.90;;;;;;4925153;28;20834;-68
2023/03/04 05:43:00;;;;;;;36.00;15.30;;;3.10;99.90;;;;;;4921900;29;20458;-70
2023/03/04 05:45:26;;;;;;;24.60;14.20;;;3.10;99.90;;;;;;4930044;29;20221;-69
2023/03/04 05:47:53;;;;;;;34.90;14.90;;;3.00;99.90;;;;;;4918943;29;20459;-69
2023/03/04 05:50:21;;;;;;;26.53;13.50;;;3.10;99.90;;;;;;4923538;28;20222;-69
2023/03/04 05:52:47;;;;;;;29.57;14.10;;;3.10;99.90;;;;;;4918785;29;20468;-69
2023/03/04 05:55:14;;;;;;;32.90;14.60;;;3.10;99.90;;;;;;4923239;29;20474;-70
2023/03/04 05:57:39;;;;;;;24.00;13.53;;;3.10;99.90;;;;;;4918555;29;20470;-69
2023/03/04 06:00:08;;;;;;;31.27;13.60;;;3.10;99.90;;;;;;4926408;29;20470;-69
2023/03/04 06:02:38;;;;;;;33.57;14.57;;;3.10;99.90;;;;;;4926788;28;20226;-69
2023/03/04 06:05:05;;;;;;;29.00;14.07;;;3.20;99.90;;;;;;4928475;29;20481;-70
2023/03/04 06:07:31;;;;;;;43.43;16.73;;;3.20;99.90;;;;;;4924914;29;20455;-69
2023/03/04 06:09:57;;;;;;;32.73;13.90;;;3.20;99.90;;;;;;4928143;29;20526;-69
2023/03/04 06:12:22;;;;;;;35.07;14.60;;;3.20;99.90;;;;;;4906890;28;20598;-69
2023/03/04 06:14:48;;;;;;;37.83;15.50;;;3.10;99.90;;;;;;4917633;29;20257;-70
2023/03/04 06:17:14;;;;;;;33.57;15.20;;;3.10;99.90;;;;;;4949436;28;20304;-69
2023/03/04 06:19:42;;;;;;;31.70;14.27;;;3.10;99.90;;;;;;4917655;29;20310;-69
2023/03/04 06:22:09;;;;;;;32.77;14.63;;;3.20;99.90;;;;;;4922847;29;20231;-72
2023/03/04 06:24:34;;;;;;;30.43;14.67;;;3.20;99.90;;;;;;4942123;28;20475;-69
2023/03/04 06:27:00;;;;;;;29.90;15.40;;;3.30;99.90;;;;;;4932390;29;20477;-69
2023/03/04 06:29:26;;;;;;;36.87;16.50;;;3.30;99.90;;;;;;4924150;28;20232;-69
2023/03/04 06:31:52;;;;;;;35.03;16.20;;;3.20;99.90;;;;;;4943000;28;20231;-69
2023/03/04 06:34:18;;;;;;;35.30;17.13;;;3.20;99.90;;;;;;4915309;29;20976;-70
2023/03/04 06:36:44;;;;;;;44.93;21.97;;;3.20;99.90;;;;;;4920625;29;20231;-68
2023/03/04 06:39:09;;;;;;;42.47;20.60;;;3.20;99.90;;;;;;4926757;28;20227;-70
2023/03/04 06:41:35;;;;;;;43.10;20.07;;;3.20;99.90;;;;;;4925014;29;20227;-69
2023/03/04 06:44:01;;;;;;;35.70;16.30;;;3.30;99.90;;;;;;4906941;29;20230;-70
2023/03/04 06:46:27;;;;;;;36.23;15.70;;;3.30;99.90;;;;;;4926911;29;20481;-69
2023/03/04 06:48:53;;;;;;;35.30;16.73;;;3.20;99.90;;;;;;4925576;29;20467;-69
2023/03/04 06:51:18;;;;;;;36.17;16.00;;;3.20;99.90;;;;;;4923798;29;20302;-70
2023/03/04 06:53:44;;;;;;;31.20;16.00;;;3.20;99.90;;;;;;4930482;28;20257;-68
2023/03/04 06:56:12;;;;;;;37.37;15.70;;;3.20;99.90;;;;;;4925173;29;20255;-68
2023/03/04 06:58:38;;;;;;;38.20;16.40;;;3.20;99.90;;;;;;4917726;29;20223;-69
2023/03/04 07:01:11;;;;;;;37.77;16.63;;;3.20;99.90;;;;;;4932142;29;20992;-68
2023/03/04 07:03:36;;;;;;;38.83;14.33;;;3.00;99.90;;;;;;4929443;29;20258;-70
2023/03/04 07:06:02;;;;;;;36.93;14.13;;;3.10;99.90;;;;;;4929878;29;20494;-69
2023/03/04 07:08:28;;;;;;;32.03;13.70;;;3.10;99.90;;;;;;4928428;29;20290;-70
2023/03/04 07:10:53;;;;;;;32.63;14.27;;;3.20;99.90;;;;;;4928075;29;20289;-69
2023/03/04 07:13:19;;;;;;;27.50;13.27;;;3.30;99.90;;;;;;4918361;29;20275;-69
2023/03/04 07:15:45;;;;;;;29.33;11.77;;;3.30;99.90;;;;;;4924779;29;20221;-69
2023/03/04 07:18:10;;;;;;;31.30;14.27;;;3.30;99.90;;;;;;4937249;28;20222;-69
2023/03/04 07:20:36;;;;;;;34.60;12.67;;;3.30;99.90;;;;;;4906140;29;20219;-69
2023/03/04 07:23:02;;;;;;;26.40;11.93;;;3.40;99.90;;;;;;4925898;29;20260;-69
2023/03/04 07:25:27;;;;;;;24.30;11.03;;;3.40;99.90;;;;;;4921715;29;20225;-69
2023/03/04 07:27:53;;;;;;;24.33;11.07;;;3.40;99.90;;;;;;4930378;29;20227;-70
2023/03/04 07:30:19;;;;;;;23.37;11.67;;;3.50;99.90;;;;;;4925460;28;20286;-68
2023/03/04 07:32:45;;;;;;;41.70;21.07;;;3.50;99.90;;;;;;4924629;29;20226;-68
2023/03/04 07:35:10;;;;;;;49.07;25.17;;;3.50;99.90;;;;;;4929434;29;20223;-68
2023/03/04 07:37:36;;;;;;;46.60;19.67;;;3.50;99.90;;;;;;4929953;29;20221;-69
2023/03/04 07:40:02;;;;;;;37.27;17.80;;;3.50;99.90;;;;;;4944116;28;20226;-69
2023/03/04 07:42:28;;;;;;;40.07;17.87;;;3.50;99.90;;;;;;4925032;29;20229;-70
2023/03/04 07:45:03;;;;;;;35.17;14.00;;;3.50;99.90;;;;;;4911805;29;20568;-68
2023/03/04 07:47:29;;;;;;;33.50;14.47;;;3.60;99.90;;;;;;4926495;29;20458;-70
2023/03/04 07:49:55;;;;;;;41.90;14.70;;;3.60;99.90;;;;;;4924842;29;20876;-69
2023/03/04 07:52:20;;;;;;;30.37;12.40;;;3.50;99.90;;;;;;4924955;29;20235;-68
2023/03/04 07:54:46;;;;;;;25.40;11.70;;;3.60;99.90;;;;;;4907901;29;20227;-69
2023/03/04 07:57:12;;;;;;;23.13;10.43;;;3.60;99.90;;;;;;4950291;28;20230;-68
2023/03/04 07:59:37;;;;;;;23.30;11.50;;;3.50;99.90;;;;;;4925869;29;20266;-69
2023/03/04 08:02:03;;;;;;;21.97;10.73;;;3.60;99.90;;;;;;4942863;28;20317;-69
2023/03/04 08:04:29;;;;;;;26.33;10.83;;;3.60;99.90;;;;;;4928712;28;20234;-68
2023/03/04 08:06:54;;;;;;;22.83;9.53;;;3.60;99.90;;;;;;4932116;28;20271;-71
2023/03/04 08:09:21;;;;;;;29.57;11.60;;;3.60;99.90;;;;;;4929385;28;20222;-70
2023/03/04 08:11:47;;;;;;;23.73;11.07;;;3.60;99.90;;;;;;4927792;29;20231;-70
2023/03/04 08:14:12;;;;;;;20.97;9.83;;;3.60;99.90;;;;;;4929037;28;20463;-70
2023/03/04 08:16:38;;;;;;;19.67;9.67;;;3.60;99.90;;;;;;4929034;29;20319;-70
2023/03/04 08:19:04;;;;;;;27.90;10.10;;;3.60;99.90;;;;;;4922849;29;20234;-70
2023/03/04 08:21:30;;;;;;;25.30;9.97;;;3.60;99.90;;;;;;4924793;28;20231;-70
2023/03/04 08:24:00;;;;;;;23.20;10.07;;;3.70;99.90;;;;;;4924039;29;20609;-69
2023/03/04 08:26:29;;;;;;;18.00;9.07;;;3.60;99.90;;;;;;4940054;28;20559;-70
2023/03/04 08:28:55;;;;;;;21.30;9.60;;;3.70;99.90;;;;;;4922858;29;20469;-70
2023/03/04 08:31:21;;;;;;;23.60;10.23;;;3.60;99.90;;;;;;4924980;29;20483;-69
2023/03/04 08:33:47;;;;;;;27.70;9.97;;;3.70;99.90;;;;;;4922172;29;20462;-69
2023/03/04 08:36:14;;;;;;;25.37;9.60;;;3.70;99.90;;;;;;4948698;28;20257;-69
2023/03/04 08:38:40;;;;;;;22.00;9.40;;;3.70;99.90;;;;;;4926124;29;20551;-70
2023/03/04 08:41:05;;;;;;;20.50;9.80;;;3.70;99.90;;;;;;4930188;29;20481;-70
2023/03/04 08:43:32;;;;;;;20.20;9.30;;;3.70;99.90;;;;;;4902761;29;20717;-69
2023/03/04 08:45:58;;;;;;;21.37;8.67;;;3.80;99.90;;;;;;4932680;29;20233;-68
2023/03/04 08:48:24;;;;;;;26.23;9.37;;;3.70;99.90;;;;;;4922921;29;20938;-69
2023/03/04 08:50:50;;;;;;;19.30;8.90;;;3.70;99.90;;;;;;4904749;29;20278;-69
2023/03/04 08:53:17;;;;;;;20.70;8.80;;;3.70;99.90;;;;;;4930155;28;20540;-69
2023/03/04 08:55:43;;;;;;;24.63;9.33;;;3.80;99.90;;;;;;4926909;29;20473;-68
2023/03/04 08:58:09;;;;;;;21.00;8.13;;;3.80;99.90;;;;;;4904931;29;20510;-69
2023/03/04 09:00:37;;;;;;;18.53;9.20;;;3.80;99.90;;;;;;4926279;28;20486;-69
2023/03/04 09:03:04;;;;;;;17.50;8.67;;;3.80;99.90;;;;;;4906102;29;20936;-69
2023/03/04 09:05:31;;;;;;;17.83;8.77;;;3.80;99.90;;;;;;4904947;29;20451;-68
2023/03/04 09:07:56;;;;;;;21.10;8.10;;;3.80;99.90;;;;;;4921448;29;20463;-68
2023/03/04 09:10:22;;;;;;;15.53;8.20;;;3.80;99.90;;;;;;4927582;29;20489;-69
2023/03/04 09:12:48;;;;;;;17.47;7.90;;;3.80;99.90;;;;;;4932601;29;20218;-69
2023/03/04 09:15:14;;;;;;;20.03;7.03;;;3.80;99.90;;;;;;4924005;29;20462;-68
2023/03/04 09:17:40;;;;;;;18.90;8.10;;;3.80;99.90;;;;;;4909466;29;20290;-69
2023/03/04 09:20:12;;;;;;;17.57;7.87;;;3.90;99.90;;;;;;4939077;28;20231;-68
2023/03/04 09:22:39;;;;;;;18.50;7.57;;;3.90;99.90;;;;;;4923514;29;20595;-68
2023/03/04 09:25:05;;;;;;;20.90;8.43;;;3.90;99.90;;;;;;4924759;29;20475;-70
2023/03/04 09:27:30;;;;;;;15.87;8.23;;;3.90;99.90;;;;;;4926864;29;20455;-68
2023/03/04 09:29:56;;;;;;;20.57;9.53;;;3.90;99.90;;;;;;4938341;28;20470;-69
2023/03/04 09:32:22;;;;;;;17.67;8.13;;;3.90;99.90;;;;;;4933057;28;20256;-68
2023/03/04 09:34:47;;;;;;;24.17;7.77;;;4.00;99.90;;;;;;4933329;28;20232;-70
2023/03/04 09:37:13;;;;;;;11.50;6.50;;;4.00;99.90;;;;;;4920235;29;20223;-69
2023/03/04 09:39:39;;;;;;;16.93;6.60;;;4.00;99.90;;;;;;4930384;29;20804;-69
2023/03/04 09:42:07;;;;;;;18.00;7.70;;;4.00;99.90;;;;;;4933471;29;20322;-69
2023/03/04 09:44:39;;;;;;;14.30;7.07;;;4.00;99.90;;;;;;4914804;29;20310;-69
2023/03/04 09:47:14;;;;;;;16.70;7.47;;;4.00;99.90;;;;;;4933186;28;20552;-69
2023/03/04 09:49:43;;;;;;;13.27;5.90;;;4.00;99.90;;;;;;4932334;29;20537;-69
2023/03/04 09:52:21;;;;;;;14.57;6.30;;;4.00;99.90;;;;;;4928161;28;20484;-69
2023/03/04 09:54:53;;;;;;;10.43;5.20;;;4.00;99.90;;;;;;4931782;29;20481;-68
2023/03/04 09:57:27;;;;;;;20.00;6.63;;;4.00;99.90;;;;;;4928836;29;20477;-69
2023/03/04 10:00:04;;;;;;;11.40;5.87;;;4.00;99.90;;;;;;4930677;29;20532;-69
2023/03/04 10:02:44;;;;;;;13.57;7.40;;;4.10;99.90;;;;;;4959623;28;20461;-68
2023/03/04 10:05:17;;;;;;;12.07;7.07;;;4.10;99.90;;;;;;4911138;29;21030;-68
2023/03/04 10:07:48;;;;;;;18.60;8.60;;;4.10;99.90;;;;;;4924529;29;20556;-67
2023/03/04 10:10:42;;;;;;;13.20;6.30;;;4.10;99.90;;;;;;4928379;28;20567;-68
2023/03/04 10:13:17;;;;;;;10.83;6.17;;;4.10;99.90;;;;;;4926297;29;20481;-67
2023/03/04 10:15:45;;;;;;;8.97;5.93;;;4.10;99.90;;;;;;4948069;28;20466;-69
2023/03/04 10:18:28;;;;;;;13.70;7.03;;;4.20;99.90;;;;;;4916941;28;20497;-68
2023/03/04 10:21:30;;;;;;;12.97;7.30;;;4.20;99.90;;;;;;4925730;29;20466;-67
2023/03/04 10:23:59;;;;;;;13.07;6.27;;;4.20;99.90;;;;;;4911206;28;20482;-68
2023/03/04 10:26:29;;;;;;;22.10;8.60;;;4.20;99.90;;;;;;4925658;28;20479;-69
2023/03/04 10:28:55;;;;;;;18.27;7.10;;;4.30;99.90;;;;;;4927561;28;20467;-69
2023/03/04 10:31:35;;;;;;;12.40;6.53;;;4.20;99.90;;;;;;4929221;29;20597;-69
2023/03/04 10:34:05;;;;;;;16.10;6.90;;;4.20;99.90;;;;;;4919549;29;20228;-69
2023/03/04 10:36:35;;;;;;;16.00;6.53;;;4.30;99.90;;;;;;4933334;29;20522;-69
2023/03/04 10:39:08;;;;;;;13.67;6.83;;;4.40;99.90;;;;;;4920421;29;20599;-68
2023/03/04 10:41:34;;;;;;;19.33;7.07;;;4.40;99.90;;;;;;4930634;29;20675;-69
2023/03/04 10:44:10;;;;;;;10.40;5.30;;;4.40;99.90;;;;;;4926366;29;20499;-68
2023/03/04 10:46:39;;;;;;;17.33;8.17;;;4.40;99.90;;;;;;4934004;29;20600;-69
2023/03/04 10:49:04;;;;;;;13.20;6.90;;;4.40;99.90;;;;;;4927173;29;20956;-69
2023/03/04 10:51:30;;;;;;;11.57;6.10;;;4.30;99.90;;;;;;4906668;29;20474;-69
2023/03/04 10:54:02;;;;;;;13.70;6.77;;;4.40;99.90;;;;;;4938104;28;20227;-69
2023/03/04 10:56:33;;;;;;;11.87;6.80;;;4.40;99.90;;;;;;4926876;28;20226;-69
2023/03/04 10:59:31;;;;;;;14.53;6.03;;;4.50;99.90;;;;;;4916807;29;20589;-69
2023/03/04 11:02:12;;;;;;;15.90;7.30;;;4.50;99.90;;;;;;4902621;29;20483;-69
2023/03/04 11:04:38;;;;;;;16.20;6.67;;;4.50;99.90;;;;;;4925227;29;20467;-68
2023/03/04 11:07:10;;;;;;;10.47;6.00;;;4.50;99.90;;;;;;4919207;29;21052;-69
2023/03/04 11:09:39;;;;;;;10.47;5.53;;;4.50;99.90;;;;;;4925412;29;20243;-69
2023/03/04 11:12:11;;;;;;;10.93;4.90;;;4.50;99.90;;;;;;4924927;29;20475;-69
2023/03/04 11:14:43;;;;;;;15.77;6.30;;;4.50;99.90;;;;;;4953306;28;20468;-69
2023/03/04 11:17:25;;;;;;;8.70;6.30;;;4.50;99.90;;;;;;4921698;29;20541;-68
2023/03/04 11:20:09;;;;;;;9.03;5.57;;;4.60;99.90;;;;;;4942840;28;20480;-69
2023/03/04 11:22:34;;;;;;;18.37;7.70;;;4.60;99.90;;;;;;4942876;28;20481;-69
2023/03/04 11:25:07;;;;;;;9.87;6.00;;;4.60;99.90;;;;;;4922608;29;20478;-69
2023/03/04 11:27:43;;;;;;;13.43;6.00;;;4.60;99.90;;;;;;4920276;29;20235;-69
2023/03/04 11:30:44;;;;;;;12.10;6.33;;;4.70;99.90;;;;;;4909094;28;20556;-71
2023/03/04 11:33:22;;;;;;;12.30;6.63;;;4.70;99.90;;;;;;4905329;28;20490;-71
2023/03/04 11:36:12;;;;;;;11.53;5.27;;;4.70;99.90;;;;;;4929661;29;20487;-71
2023/03/04 11:38:46;;;;;;;12.73;5.20;;;4.70;99.90;;;;;;4942753;28;20458;-71
2023/03/04 11:41:21;;;;;;;8.27;4.60;;;4.70;99.90;;;;;;4927097;28;20455;-69
2023/03/04 11:43:47;;;;;;;11.33;5.17;;;4.70;99.90;;;;;;4928144;29;20489;-68
2023/03/04 11:46:50;;;;;;;11.13;5.60;;;4.70;99.90;;;;;;4911765;29;20479;-67
2023/03/04 11:49:23;;;;;;;9.73;5.07;;;4.80;99.90;;;;;;4903849;29;20283;-69
2023/03/04 11:52:03;;;;;;;9.63;5.17;;;4.80;99.90;;;;;;4938753;28;20461;-69
2023/03/04 11:54:43;;;;;;;13.20;5.77;;;4.80;99.90;;;;;;4924286;29;20949;-69
2023/03/04 11:57:33;;;;;;;8.03;4.77;;;4.80;99.90;;;;;;4919528;29;21097;-69
2023/03/04 12:00:03;;;;;;;14.83;5.47;;;4.90;99.90;;;;;;4924573;29;20570;-68
2023/03/04 12:02:45;;;;;;;7.30;4.10;;;4.80;99.90;;;;;;4922704;29;20459;-69
2023/03/04 12:05:17;;;;;;;9.17;5.03;;;4.90;99.90;;;;;;4922821;29;20487;-68
2023/03/04 12:07:54;;;;;;;8.20;4.90;;;4.90;99.90;;;;;;4927077;29;20474;-68
2023/03/04 12:10:24;;;;;;;7.83;4.30;;;4.90;99.90;;;;;;4925641;28;20482;-69
2023/03/04 12:13:08;;;;;;;6.77;4.60;;;4.90;99.90;;;;;;4943882;28;20460;-69
2023/03/04 12:15:46;;;;;;;5.83;3.90;;;5.00;99.90;;;;;;4922960;28;20868;-69
2023/03/04 12:18:46;;;;;;;9.90;5.27;;;4.90;99.90;;;;;;4943127;28;20482;-69
2023/03/04 12:21:38;;;;;;;11.20;4.40;;;4.90;99.90;;;;;;4921459;28;20467;-70
2023/03/04 12:24:21;;;;;;;7.37;4.63;;;5.00;99.90;;;;;;4925466;29;20480;-69
2023/03/04 12:26:52;;;;;;;8.60;4.73;;;5.10;99.90;;;;;;4949757;28;20462;-70
2023/03/04 12:29:42;;;;;;;7.40;4.23;;;5.10;99.90;;;;;;4921182;28;20516;-68
2023/03/04 12:32:40;;;;;;;12.93;5.50;;;5.00;99.90;;;;;;4927472;29;20538;-69
2023/03/04 12:35:24;;;;;;;6.83;3.83;;;5.10;99.90;;;;;;4909642;29;20518;-69
2023/03/04 12:38:05;;;;;;;5.80;3.80;;;5.10;99.90;;;;;;4924952;28;20453;-69
2023/03/04 12:41:08;;;;;;;8.63;4.07;;;5.20;99.90;;;;;;4913285;28;20442;-69
2023/03/04 12:43:40;;;;;;;10.13;4.33;;;5.20;99.90;;;;;;4940759;28;20495;-69
2023/03/04 12:46:36;;;;;;;6.20;3.97;;;5.20;99.90;;;;;;4920286;29;21037;-69
2023/03/04 12:49:16;;;;;;;7.80;3.93;;;5.20;99.90;;;;;;4910215;29;20514;-70